Time;durP1;ratioP1;P1;durP2;ratioP2;P2;SDS_P1;SDS_P2;PMS_P1;PMS_P2;Temp;Humidity;BMP_temperature;BMP_pressure;BME280_temperature;BME280_humidity;BME280_pressure;Samples;Min_cycle;Max_cycle;Signal;HPM_P1;HPM_P2
2022/05/16 00:02:03;;;;;;;11.77;4.50;;;14.60;99.90;;;;;;5005651;28;20042;-72
2022/05/16 00:04:29;;;;;;;13.27;4.88;;;14.50;99.90;;;;;;5030566;28;20624;-72
2022/05/16 00:06:55;;;;;;;13.50;4.93;;;14.50;99.90;;;;;;5009930;28;20113;-73
2022/05/16 00:09:20;;;;;;;12.00;4.65;;;14.60;99.90;;;;;;5001175;28;20129;-73
2022/05/16 00:11:46;;;;;;;9.95;4.55;;;14.50;99.90;;;;;;4997773;28;20045;-73
2022/05/16 00:14:12;;;;;;;13.02;4.55;;;14.50;99.90;;;;;;5017834;28;20049;-73
2022/05/16 00:16:38;;;;;;;15.35;5.13;;;14.40;99.90;;;;;;5011031;28;20096;-73
2022/05/16 00:19:04;;;;;;;17.40;4.95;;;14.50;99.90;;;;;;5022194;28;20062;-73
2022/05/16 00:21:31;;;;;;;10.98;4.57;;;14.50;99.90;;;;;;5009318;28;20054;-74
2022/05/16 00:23:57;;;;;;;10.05;4.50;;;14.40;99.90;;;;;;5004998;28;20042;-74
2022/05/16 00:26:22;;;;;;;11.80;4.55;;;14.50;99.90;;;;;;5007594;28;20093;-74
2022/05/16 00:28:48;;;;;;;10.98;4.05;;;14.40;99.90;;;;;;5028088;28;20041;-73
2022/05/16 00:31:14;;;;;;;11.90;4.15;;;14.40;99.90;;;;;;5011013;28;20034;-73
2022/05/16 00:33:41;;;;;;;11.30;4.85;;;14.40;99.90;;;;;;5011418;28;20057;-73
2022/05/16 00:36:06;;;;;;;15.93;5.03;;;14.40;99.90;;;;;;5010302;28;20424;-74
2022/05/16 00:38:32;;;;;;;9.88;4.40;;;14.30;99.90;;;;;;5008426;28;20041;-73
2022/05/16 00:41:00;;;;;;;11.50;4.20;;;14.30;99.90;;;;;;4994958;28;20042;-73
2022/05/16 00:43:46;;;;;;;8.05;4.07;;;14.30;99.90;;;;;;5008324;28;20531;-73
2022/05/16 00:46:14;;;;;;;13.85;4.35;;;14.30;99.90;;;;;;5011862;28;20511;-73
2022/05/16 00:48:40;;;;;;;12.75;4.28;;;14.20;99.90;;;;;;5013794;28;20373;-75
2022/05/16 00:51:09;;;;;;;15.75;4.28;;;14.20;99.90;;;;;;5002729;28;20038;-73
2022/05/16 00:53:34;;;;;;;12.98;4.78;;;14.20;99.90;;;;;;4996526;28;20512;-73
2022/05/16 00:56:00;;;;;;;12.88;4.43;;;14.20;99.90;;;;;;5004660;28;20065;-73
2022/05/16 00:58:26;;;;;;;13.00;4.70;;;14.20;99.90;;;;;;5013748;28;20533;-73
2022/05/16 01:00:52;;;;;;;8.13;4.10;;;14.20;99.90;;;;;;5010521;28;20185;-73
2022/05/16 01:06:06;;;;;;;12.40;4.45;;;14.10;99.90;;;;;;5009120;28;20416;-74
2022/05/16 01:08:35;;;;;;;12.55;4.38;;;14.10;99.90;;;;;;5012227;28;20042;-73
2022/05/16 01:11:05;;;;;;;13.43;4.70;;;14.10;99.90;;;;;;5006849;28;20041;-73
2022/05/16 01:13:31;;;;;;;14.57;4.82;;;14.10;99.90;;;;;;5011583;28;20045;-73
2022/05/16 01:15:59;;;;;;;9.80;4.47;;;14.00;99.90;;;;;;5005051;28;20400;-73
2022/05/16 01:18:26;;;;;;;9.38;4.25;;;14.00;99.90;;;;;;5014310;28;20041;-73
2022/05/16 01:20:57;;;;;;;15.43;4.53;;;14.00;99.90;;;;;;5007647;28;20408;-73
2022/05/16 01:23:25;;;;;;;12.98;4.40;;;14.00;99.90;;;;;;4997697;28;20074;-73
2022/05/16 01:25:52;;;;;;;10.80;4.55;;;13.90;99.90;;;;;;5025222;28;20440;-73
2022/05/16 01:28:21;;;;;;;9.75;4.75;;;13.90;99.90;;;;;;5003965;28;20072;-73
2022/05/16 01:30:48;;;;;;;13.77;4.18;;;13.80;99.90;;;;;;5029963;28;20377;-72
2022/05/16 01:33:16;;;;;;;11.38;4.35;;;13.80;99.90;;;;;;5015700;28;20162;-72
2022/05/16 01:35:43;;;;;;;13.60;4.55;;;13.80;99.90;;;;;;5008960;28;20431;-72
2022/05/16 01:38:18;;;;;;;11.38;4.15;;;13.80;99.90;;;;;;4991689;28;20037;-72
2022/05/16 01:40:53;;;;;;;8.88;4.00;;;13.70;99.90;;;;;;5008960;28;20092;-72
2022/05/16 01:43:25;;;;;;;9.63;4.32;;;13.70;99.90;;;;;;4990383;28;20084;-74
2022/05/16 01:45:51;;;;;;;9.73;4.10;;;13.60;99.90;;;;;;5010220;28;20420;-74
2022/05/16 01:48:18;;;;;;;10.90;4.40;;;13.60;99.90;;;;;;5009649;28;20050;-73
2022/05/16 01:50:45;;;;;;;12.60;4.15;;;13.60;99.90;;;;;;4992432;28;20057;-73
2022/05/16 01:53:12;;;;;;;10.27;4.13;;;13.60;99.90;;;;;;4999833;28;20125;-73
2022/05/16 01:55:37;;;;;;;10.10;4.00;;;13.60;99.90;;;;;;4985717;28;20449;-73
2022/05/16 01:58:04;;;;;;;8.02;4.00;;;13.60;99.90;;;;;;4982942;28;20042;-74
2022/05/16 02:00:31;;;;;;;9.23;3.88;;;13.50;99.90;;;;;;5004168;28;20041;-73
2022/05/16 02:02:57;;;;;;;14.38;4.40;;;13.50;99.90;;;;;;5004480;28;20052;-73
2022/05/16 02:05:24;;;;;;;12.13;4.03;;;13.50;99.90;;;;;;5010153;28;20038;-73
2022/05/16 02:07:52;;;;;;;12.35;4.32;;;13.50;99.90;;;;;;4999866;28;20104;-74
2022/05/16 02:10:23;;;;;;;14.63;4.32;;;13.40;99.90;;;;;;4999009;28;20038;-73
2022/05/16 02:12:49;;;;;;;8.93;3.80;;;13.40;99.90;;;;;;4995615;28;20038;-73
2022/05/16 02:15:18;;;;;;;8.10;4.32;;;13.40;99.90;;;;;;5003253;28;20045;-73
2022/05/16 02:17:45;;;;;;;8.80;4.10;;;13.30;99.90;;;;;;5002565;28;20073;-73
2022/05/16 02:20:12;;;;;;;11.15;4.18;;;13.30;99.90;;;;;;4998825;28;20072;-73
2022/05/16 02:25:22;;;;;;;8.88;4.00;;;13.20;99.90;;;;;;5002913;28;20065;-73
2022/05/16 02:27:49;;;;;;;9.63;3.95;;;13.20;99.90;;;;;;4999926;28;20077;-73
2022/05/16 02:30:16;;;;;;;9.80;4.25;;;13.10;99.90;;;;;;5003077;28;20124;-73
2022/05/16 02:32:41;;;;;;;14.13;4.18;;;13.10;99.90;;;;;;4999805;28;20119;-73
2022/05/16 02:35:08;;;;;;;10.55;4.20;;;13.00;99.90;;;;;;5000716;28;20889;-73
2022/05/16 02:37:33;;;;;;;8.80;3.83;;;13.00;99.90;;;;;;5001437;28;20148;-73
2022/05/16 02:39:59;;;;;;;15.52;4.65;;;13.00;99.90;;;;;;4997455;28;21031;-73
2022/05/16 02:42:25;;;;;;;12.77;4.13;;;13.00;99.90;;;;;;4999906;28;20129;-73
2022/05/16 02:44:53;;;;;;;9.15;4.13;;;13.00;99.90;;;;;;5002566;28;20037;-73
2022/05/16 02:47:21;;;;;;;9.65;3.90;;;13.00;99.90;;;;;;5024588;28;20104;-73
2022/05/16 02:49:47;;;;;;;9.23;3.72;;;13.00;99.90;;;;;;4982049;28;20129;-73
2022/05/16 02:52:12;;;;;;;14.02;4.65;;;13.00;99.90;;;;;;5005457;28;20706;-73
2022/05/16 02:54:38;;;;;;;9.30;3.75;;;12.90;99.90;;;;;;5006135;28;20471;-73
2022/05/16 02:57:05;;;;;;;13.68;4.05;;;12.90;99.90;;;;;;5008258;28;20042;-73
2022/05/16 02:59:35;;;;;;;9.88;4.00;;;12.90;99.90;;;;;;4997672;28;20046;-73
2022/05/16 03:02:03;;;;;;;31.90;4.55;;;12.90;99.90;;;;;;5024154;28;20087;-73
2022/05/16 03:04:29;;;;;;;9.77;3.83;;;12.90;99.90;;;;;;5009432;28;20049;-73
2022/05/16 03:06:55;;;;;;;13.82;4.20;;;12.80;99.90;;;;;;5008051;28;20042;-73
2022/05/16 03:09:22;;;;;;;9.35;3.67;;;12.80;99.90;;;;;;5008732;28;20026;-73
2022/05/16 03:11:48;;;;;;;33.53;4.70;;;12.80;99.90;;;;;;5002074;28;20037;-73
2022/05/16 03:14:14;;;;;;;28.52;4.45;;;12.80;99.90;;;;;;5010495;28;20084;-73
2022/05/16 03:16:39;;;;;;;32.13;5.43;;;12.80;99.90;;;;;;5002234;28;20438;-73
2022/05/16 03:19:05;;;;;;;32.03;4.68;;;12.80;99.90;;;;;;5003402;28;20041;-73
2022/05/16 03:21:31;;;;;;;31.00;4.63;;;12.80;99.90;;;;;;4994184;28;20522;-72
2022/05/16 03:23:58;;;;;;;23.88;4.40;;;12.80;99.90;;;;;;5003321;28;20037;-73
2022/05/16 03:26:24;;;;;;;73.05;6.38;;;12.70;99.90;;;;;;5025818;28;20041;-73
2022/05/16 03:28:50;;;;;;;45.17;4.22;;;12.70;99.90;;;;;;5002607;28;20045;-73
2022/05/16 03:31:16;;;;;;;27.30;4.20;;;12.70;99.90;;;;;;4996118;28;20034;-73
2022/05/16 03:33:42;;;;;;;72.95;4.93;;;12.70;99.90;;;;;;5002516;28;20482;-74
2022/05/16 03:36:08;;;;;;;37.38;5.15;;;12.70;99.90;;;;;;5003985;28;20045;-73
2022/05/16 03:41:19;;;;;;;31.60;4.05;;;12.60;99.90;;;;;;5009461;28;20050;-73
2022/05/16 03:43:45;;;;;;;31.90;4.40;;;12.60;99.90;;;;;;5002037;28;20042;-73
2022/05/16 03:46:11;;;;;;;13.68;3.92;;;12.60;99.90;;;;;;5006168;28;20404;-73
2022/05/16 03:48:36;;;;;;;27.35;4.03;;;12.60;99.90;;;;;;5003673;28;20373;-73
2022/05/16 03:51:05;;;;;;;25.00;4.60;;;12.60;99.90;;;;;;5004046;28;20489;-73
2022/05/16 03:53:30;;;;;;;20.23;3.83;;;12.50;99.90;;;;;;5002161;28;20100;-73
2022/05/16 03:55:56;;;;;;;36.58;4.50;;;12.50;99.90;;;;;;4996355;28;20755;-71
2022/05/16 03:58:22;;;;;;;25.05;4.53;;;12.50;99.90;;;;;;5002182;28;20188;-72
2022/05/16 04:00:48;;;;;;;13.00;3.70;;;12.50;99.90;;;;;;5027080;28;20041;-72
2022/05/16 04:03:14;;;;;;;11.50;3.55;;;12.50;99.90;;;;;;5011033;28;20070;-72
2022/05/16 04:05:40;;;;;;;15.52;4.00;;;12.50;99.90;;;;;;5006079;28;20080;-72
2022/05/16 04:08:06;;;;;;;11.13;3.65;;;12.50;99.90;;;;;;5005420;28;20446;-72
2022/05/16 04:10:32;;;;;;;30.85;4.90;;;12.50;99.90;;;;;;4998271;28;20042;-72
2022/05/16 04:12:57;;;;;;;11.50;3.83;;;12.60;99.90;;;;;;5002149;28;20505;-72
2022/05/16 04:15:23;;;;;;;20.13;4.00;;;12.60;99.90;;;;;;5000071;28;20033;-72
2022/05/16 04:17:50;;;;;;;15.52;3.75;;;12.60;99.90;;;;;;4995191;28;20527;-72
2022/05/16 04:20:16;;;;;;;10.30;3.53;;;12.70;99.90;;;;;;4998092;28;20045;-72
2022/05/16 04:22:43;;;;;;;10.25;3.55;;;12.70;99.90;;;;;;4998180;28;20169;-72
2022/05/16 04:25:12;;;;;;;9.32;3.60;;;12.70;99.90;;;;;;5006862;28;20029;-72
2022/05/16 04:27:38;;;;;;;17.48;3.65;;;12.70;99.90;;;;;;4997900;28;20038;-72
2022/05/16 04:30:05;;;;;;;8.73;3.45;;;12.70;99.90;;;;;;4998540;28;20070;-72
2022/05/16 04:32:31;;;;;;;9.15;3.60;;;12.70;99.90;;;;;;5009285;28;20480;-72
2022/05/16 04:34:56;;;;;;;15.27;3.60;;;12.70;99.90;;;;;;5010069;28;20172;-72
2022/05/16 04:37:22;;;;;;;15.30;3.50;;;12.80;99.90;;;;;;5007744;28;20504;-72
2022/05/16 04:39:48;;;;;;;21.63;4.30;;;12.80;99.90;;;;;;4997222;28;20501;-71
2022/05/16 04:44:58;;;;;;;12.73;3.53;;;12.80;99.90;;;;;;4996158;28;20057;-71
2022/05/16 04:47:24;;;;;;;8.32;3.65;;;12.90;99.90;;;;;;5008289;28;20492;-71
2022/05/16 04:49:49;;;;;;;15.95;3.35;;;12.90;99.90;;;;;;5001398;28;20488;-71
2022/05/16 04:52:15;;;;;;;16.73;3.60;;;12.90;99.90;;;;;;5001417;28;20502;-72
2022/05/16 04:54:41;;;;;;;9.50;3.25;;;13.00;99.90;;;;;;4999356;28;20099;-72
2022/05/16 04:57:07;;;;;;;22.98;3.83;;;13.00;99.90;;;;;;5007697;28;20034;-72
2022/05/16 04:59:33;;;;;;;28.10;4.43;;;13.10;99.90;;;;;;5007553;28;20052;-72
2022/05/16 05:01:59;;;;;;;14.65;3.72;;;13.10;99.90;;;;;;5009514;28;20038;-72
2022/05/16 05:04:25;;;;;;;26.33;3.75;;;13.20;99.90;;;;;;5005961;28;20081;-73
2022/05/16 05:06:51;;;;;;;18.85;3.45;;;13.20;99.90;;;;;;5001565;28;20046;-73
2022/05/16 05:09:17;;;;;;;14.23;3.50;;;13.30;99.90;;;;;;5004099;28;20077;-73
2022/05/16 05:14:32;;;;;;;11.82;3.30;;;13.40;99.90;;;;;;5000930;28;20038;-72
2022/05/16 05:16:59;;;;;;;9.00;3.53;;;13.40;99.90;;;;;;5001510;28;20498;-72
2022/05/16 05:19:26;;;;;;;12.82;3.67;;;13.50;99.90;;;;;;5002533;28;20402;-73
2022/05/16 05:21:51;;;;;;;13.23;3.45;;;13.50;99.90;;;;;;5001181;28;20437;-72
2022/05/16 05:24:17;;;;;;;16.17;4.10;;;13.60;99.90;;;;;;5005373;28;20125;-72
2022/05/16 05:26:43;;;;;;;12.63;3.42;;;13.70;99.90;;;;;;5006666;28;20546;-73
2022/05/16 05:29:11;;;;;;;10.70;3.50;;;13.70;99.90;;;;;;5023121;28;20038;-72
2022/05/16 05:31:37;;;;;;;12.82;3.65;;;13.80;99.90;;;;;;5008584;28;20447;-72
2022/05/16 05:34:04;;;;;;;8.18;3.28;;;13.90;99.90;;;;;;5012600;28;20527;-73
2022/05/16 05:36:31;;;;;;;13.45;3.30;;;13.90;99.90;;;;;;5025181;28;20552;-73
2022/05/16 05:38:58;;;;;;;10.13;3.30;;;14.00;99.90;;;;;;5011819;28;20492;-72
2022/05/16 05:41:23;;;;;;;9.52;3.30;;;14.10;99.90;;;;;;5008322;28;20685;-73
2022/05/16 05:43:50;;;;;;;9.25;3.10;;;14.20;99.90;;;;;;5007066;28;20065;-72
2022/05/16 05:46:16;;;;;;;12.10;3.33;;;14.30;99.90;;;;;;5009951;28;20075;-72
2022/05/16 05:48:42;;;;;;;7.90;3.20;;;14.40;99.90;;;;;;5007587;28;20042;-72
2022/05/16 05:51:08;;;;;;;13.27;3.83;;;14.50;99.90;;;;;;5005135;28;20477;-72
2022/05/16 05:53:37;;;;;;;13.38;3.33;;;14.50;99.90;;;;;;5008515;28;20543;-73
2022/05/16 05:56:07;;;;;;;10.20;3.03;;;14.70;99.90;;;;;;5008299;28;20500;-73
2022/05/16 05:58:33;;;;;;;7.03;3.25;;;14.70;99.90;;;;;;5006187;28;20531;-73
2022/05/16 06:01:03;;;;;;;9.10;3.33;;;14.80;99.90;;;;;;5003319;28;20085;-73
2022/05/16 06:03:30;;;;;;;11.23;3.53;;;14.90;99.90;;;;;;5005140;28;20041;-73
2022/05/16 06:05:56;;;;;;;9.95;3.40;;;14.90;99.90;;;;;;5012230;28;20492;-73
2022/05/16 06:08:23;;;;;;;12.35;3.50;;;15.00;99.90;;;;;;5011786;28;20042;-72
2022/05/16 06:10:49;;;;;;;10.25;3.70;;;15.00;99.90;;;;;;5012223;28;20042;-72
2022/05/16 06:13:16;;;;;;;9.90;3.60;;;15.10;99.90;;;;;;5008536;28;20120;-72
2022/05/16 06:15:42;;;;;;;11.45;3.60;;;15.30;99.90;;;;;;4994625;28;20462;-72
2022/05/16 06:18:08;;;;;;;12.00;3.92;;;15.30;99.90;;;;;;5009751;28;20106;-72
2022/05/16 06:20:34;;;;;;;9.20;3.00;;;15.40;99.90;;;;;;5013112;28;20042;-72
2022/05/16 06:23:00;;;;;;;10.93;3.45;;;15.60;99.90;;;;;;5009551;28;20057;-72
2022/05/16 06:25:33;;;;;;;8.60;3.13;;;15.60;99.90;;;;;;5007638;28;20040;-72
2022/05/16 06:28:08;;;;;;;10.82;3.65;;;15.80;99.90;;;;;;5002459;28;20508;-72
2022/05/16 06:30:36;;;;;;;11.68;3.38;;;16.00;99.90;;;;;;5006665;28;20041;-73
2022/05/16 06:33:03;;;;;;;14.13;3.85;;;16.10;99.90;;;;;;5010147;28;20038;-72
2022/05/16 06:35:28;;;;;;;8.50;3.30;;;16.20;99.90;;;;;;5004338;28;20143;-71
2022/05/16 06:37:54;;;;;;;10.10;3.70;;;16.30;99.90;;;;;;5012074;28;20045;-72
2022/05/16 06:40:20;;;;;;;11.70;3.40;;;16.50;99.90;;;;;;5027117;28;20038;-72
2022/05/16 06:42:46;;;;;;;14.55;3.42;;;16.50;99.90;;;;;;5005412;28;20042;-72
2022/05/16 06:45:13;;;;;;;10.45;3.53;;;16.70;99.90;;;;;;5010996;28;20042;-72
2022/05/16 06:47:39;;;;;;;11.48;3.33;;;16.80;99.90;;;;;;4995556;28;20527;-73
2022/05/16 06:50:05;;;;;;;9.68;3.13;;;16.90;99.90;;;;;;5004100;28;20034;-72
2022/05/16 06:52:31;;;;;;;10.45;3.35;;;17.00;99.90;;;;;;5006442;28;20113;-72
2022/05/16 06:54:56;;;;;;;9.95;2.88;;;17.20;99.90;;;;;;5006506;28;20041;-72
2022/05/16 06:57:22;;;;;;;11.48;3.15;;;17.40;99.90;;;;;;5004558;28;20053;-72
2022/05/16 06:59:48;;;;;;;9.40;2.88;;;17.50;99.90;;;;;;5005461;28;20045;-75
2022/05/16 07:02:14;;;;;;;13.82;3.65;;;17.60;99.90;;;;;;5010625;28;20141;-73
2022/05/16 07:04:40;;;;;;;12.18;3.15;;;17.80;99.90;;;;;;4987979;28;20046;-73
2022/05/16 07:07:08;;;;;;;9.85;3.20;;;17.90;99.90;;;;;;5019933;28;20671;-72
2022/05/16 07:09:37;;;;;;;12.60;3.15;;;18.10;99.90;;;;;;5011166;28;20709;-73
2022/05/16 07:12:03;;;;;;;10.48;3.38;;;18.20;99.90;;;;;;4994604;28;20034;-73
2022/05/16 07:14:29;;;;;;;10.75;3.38;;;18.30;99.90;;;;;;5011448;28;20044;-73
2022/05/16 07:16:54;;;;;;;11.63;3.42;;;18.40;99.90;;;;;;5012809;28;20038;-73
2022/05/16 07:19:20;;;;;;;9.95;3.40;;;18.60;99.90;;;;;;5006328;28;20488;-73
2022/05/16 07:21:45;;;;;;;10.95;3.40;;;18.70;99.90;;;;;;4990124;28;20455;-73
2022/05/16 07:24:11;;;;;;;11.18;3.50;;;18.90;99.90;;;;;;5008463;28;20037;-73
2022/05/16 07:29:22;;;;;;;11.30;3.30;;;19.00;99.90;;;;;;5003181;28;20531;-72
2022/05/16 07:31:47;;;;;;;8.45;3.00;;;19.20;99.20;;;;;;5001384;28;20046;-73
2022/05/16 07:34:13;;;;;;;9.00;2.90;;;19.30;99.30;;;;;;4998047;28;20029;-73
2022/05/16 07:36:39;;;;;;;10.52;2.80;;;19.40;99.90;;;;;;5010913;28;20140;-72
2022/05/16 07:39:04;;;;;;;8.73;3.03;;;19.60;99.50;;;;;;5010156;28;20042;-72
2022/05/16 07:41:31;;;;;;;11.52;2.70;;;19.70;99.70;;;;;;5009807;28;20046;-73
2022/05/16 07:43:58;;;;;;;10.48;3.13;;;19.90;98.00;;;;;;5008224;28;20408;-73
2022/05/16 07:46:24;;;;;;;9.93;2.83;;;20.10;99.10;;;;;;5008400;28;20040;-73
2022/05/16 07:48:50;;;;;;;13.00;3.10;;;20.20;97.20;;;;;;5009877;28;20506;-73
2022/05/16 07:51:16;;;;;;;11.52;3.40;;;20.40;96.20;;;;;;5005396;28;20404;-73
2022/05/16 07:53:42;;;;;;;7.07;2.78;;;20.50;95.10;;;;;;5009994;28;20042;-73
2022/05/16 07:56:09;;;;;;;7.93;2.70;;;20.60;93.50;;;;;;5010378;28;20196;-73
2022/05/16 07:58:35;;;;;;;12.68;3.15;;;20.50;94.40;;;;;;5010632;28;20377;-73
2022/05/16 08:01:01;;;;;;;7.40;2.60;;;20.50;96.10;;;;;;4986907;28;20041;-74
2022/05/16 08:03:28;;;;;;;6.93;2.85;;;20.50;95.30;;;;;;4997766;28;20043;-74
2022/05/16 08:05:54;;;;;;;10.85;2.97;;;20.60;96.40;;;;;;4993500;28;20052;-74
2022/05/16 08:11:05;;;;;;;9.35;3.22;;;20.80;98.00;;;;;;5010058;28;20038;-74
2022/05/16 08:13:30;;;;;;;12.80;3.40;;;21.00;97.00;;;;;;5010288;28;20038;-74
2022/05/16 08:15:57;;;;;;;12.15;3.03;;;21.10;94.30;;;;;;5008766;28;20042;-74
2022/05/16 08:18:22;;;;;;;7.32;2.92;;;21.10;95.00;;;;;;5012722;28;20107;-73
2022/05/16 08:20:50;;;;;;;7.03;2.55;;;21.20;95.40;;;;;;5009788;28;20535;-73
2022/05/16 08:23:21;;;;;;;11.25;2.90;;;21.30;94.60;;;;;;5010377;28;20034;-73
2022/05/16 08:25:47;;;;;;;9.82;2.78;;;21.40;93.10;;;;;;5005533;28;20065;-73
2022/05/16 08:28:14;;;;;;;10.95;3.15;;;21.40;93.20;;;;;;5010573;28;20045;-73
2022/05/16 08:30:40;;;;;;;10.15;3.25;;;21.60;92.60;;;;;;5009656;28;20083;-73
2022/05/16 08:33:05;;;;;;;9.52;2.90;;;21.70;91.40;;;;;;5005151;28;20037;-73
2022/05/16 08:35:32;;;;;;;11.35;3.25;;;21.80;92.10;;;;;;5011993;28;20496;-73
2022/05/16 08:40:59;;;;;;;8.95;2.80;;;22.10;91.60;;;;;;5013413;28;20492;-73
2022/05/16 08:44:10;;;;;;;13.00;3.40;;;22.30;89.60;;;;;;5008196;28;20041;-73
2022/05/16 08:47:05;;;;;;;13.77;3.42;;;22.50;86.30;;;;;;5007181;28;20050;-73
2022/05/16 08:49:35;;;;;;;11.60;3.03;;;22.80;84.90;;;;;;5012996;28;20042;-73
2022/05/16 08:52:14;;;;;;;7.93;3.00;;;22.80;85.50;;;;;;5029917;28;20380;-73
2022/05/16 08:54:45;;;;;;;9.70;3.05;;;23.00;84.60;;;;;;4995990;28;20038;-73
2022/05/16 08:57:14;;;;;;;13.95;3.25;;;23.10;82.80;;;;;;5013632;28;20397;-73
2022/05/16 08:59:43;;;;;;;8.50;2.90;;;23.20;83.30;;;;;;5013229;28;20038;-73
2022/05/16 09:02:19;;;;;;;14.07;3.00;;;23.40;83.30;;;;;;4994198;28;20061;-73
2022/05/16 09:04:52;;;;;;;12.57;3.67;;;23.50;80.50;;;;;;5005763;28;20037;-73
2022/05/16 09:07:26;;;;;;;9.88;3.25;;;23.60;80.40;;;;;;5013819;28;20034;-73
2022/05/16 09:09:57;;;;;;;14.15;3.80;;;23.80;77.30;;;;;;5012394;28;20037;-73
2022/05/16 09:12:39;;;;;;;10.75;3.67;;;24.00;75.80;;;;;;5013036;28;20404;-73
2022/05/16 09:15:24;;;;;;;12.23;3.25;;;24.10;73.30;;;;;;5002903;28;20386;-73
2022/05/16 09:17:59;;;;;;;11.85;3.03;;;24.30;70.80;;;;;;4998661;28;20122;-73
2022/05/16 09:20:34;;;;;;;14.93;3.63;;;24.50;71.80;;;;;;5001093;28;20469;-74
2022/05/16 09:23:15;;;;;;;11.38;3.13;;;24.60;69.10;;;;;;5003014;28;20607;-75
2022/05/16 09:25:56;;;;;;;11.73;2.97;;;24.90;69.80;;;;;;5006555;28;20460;-74
2022/05/16 09:28:37;;;;;;;9.55;2.80;;;25.20;70.30;;;;;;4992709;28;20540;-74
2022/05/16 09:31:21;;;;;;;12.85;3.67;;;25.40;68.50;;;;;;4989670;28;20053;-75
2022/05/16 09:33:55;;;;;;;11.90;3.30;;;25.50;61.30;;;;;;4989959;28;20054;-75
2022/05/16 09:36:24;;;;;;;12.23;3.28;;;25.40;62.90;;;;;;5012372;28;20496;-75
2022/05/16 09:38:50;;;;;;;10.35;3.00;;;25.50;59.10;;;;;;5000815;28;20049;-74
2022/05/16 09:41:22;;;;;;;13.48;3.60;;;25.70;60.70;;;;;;5001539;28;20052;-75
2022/05/16 09:43:54;;;;;;;;;;;25.90;61.80;;;;;;5004871;28;20491;-76
2022/05/16 09:46:33;;;;;;;11.83;3.00;;;26.20;61.70;;;;;;5005845;28;19917;-74
2022/05/16 09:49:04;;;;;;;10.25;3.47;;;26.30;60.30;;;;;;5002073;28;20168;-74
2022/05/16 09:51:37;;;;;;;10.35;3.30;;;26.40;58.70;;;;;;5002504;28;20042;-74
2022/05/16 09:54:35;;;;;;;9.90;2.92;;;26.40;60.70;;;;;;5003107;28;20045;-74
2022/05/16 09:57:04;;;;;;;9.23;3.10;;;26.40;59.90;;;;;;5002963;28;20053;-74
2022/05/16 09:59:35;;;;;;;11.57;3.08;;;26.50;59.00;;;;;;5003610;28;20045;-74
2022/05/16 10:02:12;;;;;;;7.22;3.00;;;26.50;58.20;;;;;;5003734;28;20136;-74
2022/05/16 10:04:41;;;;;;;8.35;3.20;;;26.60;57.90;;;;;;5005843;28;21390;-74
2022/05/16 10:07:08;;;;;;;9.95;3.55;;;26.60;58.10;;;;;;5021832;28;20048;-74
2022/05/16 10:09:43;;;;;;;12.30;2.90;;;26.60;56.10;;;;;;4999131;28;20532;-74
2022/05/16 10:12:13;;;;;;;11.60;2.90;;;26.70;59.20;;;;;;5005590;28;20045;-74
2022/05/16 10:14:41;;;;;;;13.07;3.10;;;26.80;59.20;;;;;;5020294;28;20034;-75
2022/05/16 10:17:10;;;;;;;9.35;3.20;;;27.00;57.80;;;;;;5000543;28;20037;-74
2022/05/16 10:19:39;;;;;;;8.20;3.30;;;27.20;56.80;;;;;;5001481;28;20041;-74
2022/05/16 10:22:19;;;;;;;10.65;3.47;;;27.30;57.00;;;;;;5002168;28;20030;-74
2022/05/16 10:24:52;;;;;;;12.48;3.33;;;27.40;54.60;;;;;;5021247;28;20033;-74
2022/05/16 10:27:28;;;;;;;9.45;2.80;;;27.70;56.30;;;;;;4987476;28;20142;-74
2022/05/16 10:29:57;;;;;;;10.05;3.03;;;27.80;55.00;;;;;;5002963;28;20038;-74
2022/05/16 10:35:34;;;;;;;9.95;3.30;;;27.80;54.80;;;;;;5006486;28;20076;-75
2022/05/16 10:38:18;;;;;;;9.18;3.38;;;27.60;52.60;;;;;;5006608;28;20049;-74
2022/05/16 10:40:51;;;;;;;12.00;3.10;;;27.40;54.00;;;;;;5004853;28;20046;-75
2022/05/16 10:43:40;;;;;;;8.90;3.00;;;27.20;53.30;;;;;;5008204;28;20393;-75
2022/05/16 10:46:14;;;;;;;9.48;2.92;;;26.90;54.50;;;;;;4995330;28;20049;-75
2022/05/16 10:48:45;;;;;;;12.02;3.40;;;26.60;55.10;;;;;;5012124;28;20503;-74
2022/05/16 10:51:18;;;;;;;10.93;3.30;;;26.40;56.20;;;;;;5017111;28;20085;-75
2022/05/16 10:54:10;;;;;;;17.52;4.00;;;26.20;57.30;;;;;;5005139;28;20160;-74
2022/05/16 10:57:07;;;;;;;12.05;4.00;;;26.10;59.00;;;;;;5009659;28;20089;-74
2022/05/16 11:00:06;;;;;;;16.17;3.78;;;25.90;62.00;;;;;;5007686;28;20052;-74
2022/05/16 11:02:42;;;;;;;10.27;3.50;;;25.50;60.60;;;;;;4978778;28;20045;-74
2022/05/16 11:05:39;;;;;;;14.52;3.50;;;25.30;61.20;;;;;;5000580;28;20034;-74
2022/05/16 11:08:29;;;;;;;11.75;4.07;;;25.30;62.90;;;;;;5010415;28;20046;-75
2022/05/16 11:11:03;;;;;;;15.60;3.38;;;25.10;62.20;;;;;;5021885;28;20038;-75
2022/05/16 11:13:54;;;;;;;10.82;3.05;;;25.00;63.40;;;;;;5006326;28;20037;-74
2022/05/16 11:16:39;;;;;;;12.80;3.53;;;24.80;66.00;;;;;;5001498;28;20046;-71
2022/05/16 11:19:20;;;;;;;8.98;3.53;;;24.80;68.80;;;;;;5004549;28;20449;-72
2022/05/16 11:21:58;;;;;;;12.13;3.40;;;24.70;68.80;;;;;;4995434;28;20108;-72
2022/05/16 11:24:35;;;;;;;9.00;3.20;;;24.60;66.40;;;;;;5006742;28;20044;-71
2022/05/16 11:27:22;;;;;;;10.45;3.58;;;24.50;71.30;;;;;;5009339;28;20044;-71
2022/05/16 11:30:26;;;;;;;13.82;3.50;;;24.50;71.00;;;;;;5009573;28;20050;-71
2022/05/16 11:33:15;;;;;;;11.68;3.40;;;24.50;71.90;;;;;;5027076;28;20037;-74
2022/05/16 11:35:47;;;;;;;10.68;3.53;;;24.40;74.60;;;;;;5007719;28;20408;-74
2022/05/16 11:38:37;;;;;;;8.45;2.92;;;24.40;75.10;;;;;;5010614;28;20087;-74
2022/05/16 11:41:09;;;;;;;9.65;3.22;;;24.40;71.00;;;;;;5006125;28;20046;-74
2022/05/16 11:43:44;;;;;;;9.98;3.28;;;24.40;74.30;;;;;;5001072;28;20073;-74
2022/05/16 11:46:37;;;;;;;8.82;2.63;;;24.40;76.00;;;;;;5004036;28;20034;-74
2022/05/16 11:49:27;;;;;;;6.50;2.47;;;24.50;73.20;;;;;;4993395;28;20084;-74
2022/05/16 11:52:12;;;;;;;10.15;2.30;;;24.60;74.10;;;;;;5009130;28;20049;-75
2022/05/16 11:54:44;;;;;;;7.50;2.22;;;24.70;75.70;;;;;;5015814;28;20044;-74
2022/05/16 12:02:51;;;;;;;6.88;2.47;;;24.80;74.10;;;;;;4996463;28;20128;-76
2022/05/16 12:05:23;;;;;;;9.77;2.95;;;24.70;73.60;;;;;;4993171;28;20294;-75
2022/05/16 12:07:57;;;;;;;9.32;2.70;;;24.70;75.60;;;;;;5011267;28;20559;-74
2022/05/16 12:10:26;;;;;;;6.57;2.78;;;24.80;75.30;;;;;;5009458;28;20042;-74
2022/05/16 12:13:18;;;;;;;6.05;2.58;;;24.80;75.20;;;;;;5007031;28;20045;-74
2022/05/16 12:15:44;;;;;;;10.75;3.10;;;24.60;72.70;;;;;;5007657;28;20041;-74
2022/05/16 12:18:34;;;;;;;8.50;2.92;;;24.50;75.60;;;;;;5005041;28;20043;-74
2022/05/16 12:21:09;;;;;;;12.43;2.85;;;24.50;78.60;;;;;;5000405;28;20052;-76
2022/05/16 12:23:49;;;;;;;8.27;2.92;;;24.60;79.10;;;;;;4995536;28;20053;-76
2022/05/16 12:26:31;;;;;;;9.18;2.88;;;24.60;77.50;;;;;;5000092;28;20037;-75
2022/05/16 12:29:09;;;;;;;6.72;2.75;;;24.80;76.70;;;;;;5000660;28;20113;-75
2022/05/16 12:31:44;;;;;;;11.90;3.17;;;24.80;79.10;;;;;;4998359;28;20038;-75
2022/05/16 12:34:11;;;;;;;9.77;3.25;;;24.90;75.00;;;;;;5000838;28;20045;-75
2022/05/16 12:36:38;;;;;;;9.98;2.95;;;24.90;76.90;;;;;;5000439;28;20046;-75
2022/05/16 12:39:33;;;;;;;7.43;3.10;;;25.10;75.80;;;;;;4999920;28;20088;-75
2022/05/16 12:42:17;;;;;;;9.40;3.00;;;25.10;74.00;;;;;;4999613;28;20061;-75
2022/05/16 12:44:54;;;;;;;6.78;2.97;;;25.30;75.90;;;;;;5005504;28;20079;-75
2022/05/16 12:47:44;;;;;;;8.35;3.33;;;25.50;71.00;;;;;;4986346;28;20047;-74
2022/05/16 12:50:27;;;;;;;10.95;3.08;;;25.60;68.60;;;;;;5001440;28;20042;-75
2022/05/16 12:53:22;;;;;;;11.13;3.40;;;25.80;70.20;;;;;;4984615;28;20083;-74
2022/05/16 12:56:08;;;;;;;6.93;3.00;;;26.10;70.20;;;;;;4997632;28;20050;-74
2022/05/16 12:58:49;;;;;;;10.27;3.03;;;26.20;67.80;;;;;;5001304;28;20085;-75
2022/05/16 13:01:35;;;;;;;10.05;3.20;;;26.20;68.60;;;;;;5018329;28;20045;-74
2022/05/16 13:04:11;;;;;;;9.93;3.08;;;26.20;69.10;;;;;;5001485;28;20061;-75
2022/05/16 13:06:55;;;;;;;7.63;2.95;;;26.20;70.20;;;;;;5007097;28;20056;-74
2022/05/16 13:09:52;;;;;;;5.97;2.83;;;26.00;68.10;;;;;;4990381;28;20164;-74
2022/05/16 13:12:54;;;;;;;8.95;3.05;;;25.70;68.50;;;;;;5009716;28;20135;-75
2022/05/16 13:15:26;;;;;;;8.20;2.75;;;25.60;72.40;;;;;;5005940;28;20054;-74
2022/05/16 13:17:57;;;;;;;7.22;2.72;;;25.60;76.40;;;;;;5004879;28;20045;-74
2022/05/16 13:20:34;;;;;;;7.50;3.20;;;25.70;74.50;;;;;;5005353;28;20046;-73
2022/05/16 13:23:01;;;;;;;13.77;3.70;;;25.50;73.00;;;;;;5002618;28;20132;-74
2022/05/16 13:25:28;;;;;;;8.43;3.38;;;25.50;72.90;;;;;;5005620;28;20034;-74
2022/05/16 13:30:44;;;;;;;9.65;3.80;;;25.50;74.40;;;;;;5000522;28;20073;-74
2022/05/16 13:33:33;;;;;;;9.30;4.80;;;25.50;73.70;;;;;;4990125;28;20042;-73